createdAt,value
2018-09-06T00:02:24.225Z,101190.02
2018-09-06T00:04:52.137Z,101189.16
2018-09-06T00:07:18.903Z,101193.21
2018-09-06T00:09:46.489Z,101194.54
2018-09-06T00:12:13.222Z,101196.30
2018-09-06T00:14:39.880Z,101189.45
2018-09-06T00:17:07.390Z,101188.23
2018-09-06T00:19:34.905Z,101186.45
2018-09-06T00:22:02.725Z,101191.62
2018-09-06T00:24:30.062Z,101175.93
2018-09-06T00:26:57.643Z,101183.64
2018-09-06T00:29:24.322Z,101186.91
2018-09-06T00:31:52.970Z,101184.55
2018-09-06T00:34:20.665Z,101179.80
2018-09-06T00:36:47.370Z,101178.47
2018-09-06T00:39:14.033Z,101182.09
2018-09-06T00:41:40.690Z,101182.58
2018-09-06T00:44:07.357Z,101182.80
2018-09-06T00:46:34.006Z,101183.30
2018-09-06T00:49:00.701Z,101186.45
2018-09-06T00:51:27.386Z,101186.22
2018-09-06T00:53:54.041Z,101184.74
2018-09-06T00:56:21.971Z,101183.41
2018-09-06T00:58:48.679Z,101177.75
2018-09-06T01:01:15.352Z,101172.44
2018-09-06T01:03:42.044Z,101169.09
2018-09-06T01:06:08.753Z,101167.76
2018-09-06T01:08:36.402Z,101167.88
2018-09-06T01:11:03.053Z,101165.94
2018-09-06T01:13:30.865Z,101169.62
2018-09-06T01:15:57.518Z,101165.86
2018-09-06T01:18:25.070Z,101166.47
2018-09-06T01:20:52.717Z,101166.84
2018-09-06T01:23:21.715Z,101169.13
2018-09-06T01:25:48.880Z,101157.88
2018-09-06T01:28:17.379Z,101160.95
2018-09-06T01:30:44.887Z,101158.15
2018-09-06T01:33:11.601Z,101161.15
2018-09-06T01:35:42.869Z,101161.23
2018-09-06T01:38:09.870Z,101166.84
2018-09-06T01:40:36.562Z,101159.82
2018-09-06T01:43:04.173Z,101162.02
2018-09-06T01:45:31.055Z,101165.78
2018-09-06T01:47:59.637Z,101160.88
2018-09-06T01:50:26.313Z,101163.05
2018-09-06T01:52:53.769Z,101154.92
2018-09-06T01:55:21.342Z,101159.36
2018-09-06T01:57:49.050Z,101160.20
2018-09-06T02:00:16.645Z,101156.63
2018-09-06T02:02:43.377Z,101156.97
2018-09-06T02:05:10.061Z,101160.88
2018-09-06T02:07:37.713Z,101154.88
2018-09-06T02:10:05.396Z,101152.83
2018-09-06T02:12:33.004Z,101155.48
2018-09-06T02:15:00.628Z,101146.91
2018-09-06T02:17:28.332Z,101144.17
2018-09-06T02:19:56.660Z,101145.13
2018-09-06T02:22:24.209Z,101140.38
2018-09-06T02:24:51.671Z,101139.69
2018-09-06T02:27:19.309Z,101132.89
2018-09-06T02:29:46.010Z,101129.47
2018-09-06T02:32:13.711Z,101131.64
2018-09-06T02:34:40.469Z,101127.38
2018-09-06T02:37:07.933Z,101131.07
2018-09-06T02:39:35.069Z,101130.88
2018-09-06T02:42:02.581Z,101131.45
2018-09-06T02:44:30.524Z,101127.38
2018-09-06T02:46:58.204Z,101128.34
2018-09-06T02:49:30.656Z,101117.78
2018-09-06T02:51:58.181Z,101121.50
2018-09-06T02:54:24.857Z,101117.70
2018-09-06T02:56:52.437Z,101116.11
2018-09-06T02:59:19.098Z,101115.20
2018-09-06T03:01:46.631Z,101112.53
2018-09-06T03:04:13.338Z,101113.79
2018-09-06T03:06:40.849Z,101116.79
2018-09-06T03:09:08.424Z,101104.07
2018-09-06T03:11:40.757Z,101109.19
2018-09-06T03:14:08.909Z,101100.99
2018-09-06T03:16:36.513Z,101100.30
2018-09-06T03:19:04.133Z,101095.94
2018-09-06T03:21:30.852Z,101101.91
2018-09-06T03:23:57.572Z,101100.16
2018-09-06T03:26:25.085Z,101096.44
2018-09-06T03:28:52.540Z,101101.48
2018-09-06T03:31:21.298Z,101100.23
2018-09-06T03:33:47.960Z,101105.40
2018-09-06T03:36:15.012Z,101102.17
2018-09-06T03:38:41.704Z,101102.55
2018-09-06T03:41:08.449Z,101100.50
2018-09-06T03:43:35.149Z,101100.08
2018-09-06T03:46:01.821Z,101097.69
2018-09-06T03:48:29.140Z,101097.77
2018-09-06T03:50:55.836Z,101097.34
2018-09-06T03:53:22.519Z,101100.77
2018-09-06T03:55:51.357Z,101096.66
2018-09-06T03:58:20.678Z,101098.26
2018-09-06T04:00:47.593Z,101096.52
2018-09-06T04:03:15.178Z,101099.81
2018-09-06T04:05:42.813Z,101101.48
2018-09-06T04:08:10.401Z,101099.44
2018-09-06T04:10:38.000Z,101099.44
2018-09-06T04:13:05.601Z,101099.93
2018-09-06T04:15:33.283Z,101096.59
2018-09-06T04:18:00.871Z,101092.18
2018-09-06T04:20:28.405Z,101089.67
2018-09-06T04:22:57.510Z,101094.13
2018-09-06T04:25:25.267Z,101080.98
2018-09-06T04:27:52.809Z,101088.54
2018-09-06T04:30:20.290Z,101085.88
2018-09-06T04:32:47.908Z,101091.34
2018-09-06T04:35:14.628Z,101092.88
2018-09-06T04:37:41.308Z,101090.86
2018-09-06T04:40:08.168Z,101088.77
2018-09-06T04:42:35.697Z,101086.11
2018-09-06T04:45:02.422Z,101095.53
2018-09-06T04:47:30.291Z,101090.93
2018-09-06T04:49:57.097Z,101093.25
2018-09-06T04:52:24.125Z,101085.27
2018-09-06T04:54:51.793Z,101083.64
2018-09-06T04:57:18.581Z,101088.88
2018-09-06T04:59:45.254Z,101094.08
2018-09-06T05:02:13.015Z,101093.36
2018-09-06T05:04:40.597Z,101085.31
2018-09-06T05:07:08.261Z,101089.67
2018-09-06T05:09:34.944Z,101088.61
2018-09-06T05:12:02.431Z,101089.11
2018-09-06T05:14:30.141Z,101087.21
2018-09-06T05:16:56.796Z,101086.03
2018-09-06T05:19:23.501Z,101090.70
2018-09-06T05:21:51.151Z,101096.09
2018-09-06T05:24:17.841Z,101101.41
2018-09-06T05:26:45.619Z,101099.59
2018-09-06T05:29:12.320Z,101099.25
2018-09-06T05:31:39.773Z,101097.84
2018-09-06T05:34:06.449Z,101095.67
2018-09-06T05:36:33.153Z,101104.00
2018-09-06T05:39:01.068Z,101104.91
2018-09-06T05:41:27.727Z,101103.53
2018-09-06T05:43:55.217Z,101104.56
2018-09-06T05:46:22.769Z,101107.17
2018-09-06T05:48:49.472Z,101099.89
2018-09-06T05:51:16.141Z,101103.95
2018-09-06T05:53:42.797Z,101097.14
2018-09-06T05:56:09.532Z,101099.31
2018-09-06T05:58:36.244Z,101095.20
2018-09-06T06:01:02.904Z,101094.06
2018-09-06T06:03:30.434Z,101097.06
2018-09-06T06:05:57.093Z,101093.38
2018-09-06T06:08:30.361Z,101091.06
2018-09-06T06:10:57.014Z,101089.09
2018-09-06T06:13:23.655Z,101090.16
2018-09-06T06:15:51.822Z,101085.40
2018-09-06T06:18:18.548Z,101086.42
2018-09-06T06:20:45.201Z,101087.86
2018-09-06T06:23:12.732Z,101083.16
2018-09-06T06:25:40.416Z,101075.17
2018-09-06T06:28:08.092Z,101082.44
2018-09-06T06:30:35.669Z,101077.00
2018-09-06T06:33:03.250Z,101076.28
2018-09-06T06:35:30.922Z,101078.70
2018-09-06T06:37:57.692Z,101077.37
2018-09-06T06:40:24.590Z,101069.39
2018-09-06T06:42:53.541Z,101074.78
2018-09-06T06:45:21.504Z,101068.52
2018-09-06T06:47:48.161Z,101065.95
2018-09-06T06:50:14.860Z,101064.63
2018-09-06T06:52:41.541Z,101067.48
2018-09-06T06:55:08.185Z,101064.14
2018-09-06T06:57:34.859Z,101070.45
2018-09-06T07:00:02.502Z,101069.45
2018-09-06T07:02:30.916Z,101065.81
2018-09-06T07:04:57.576Z,101071.13
2018-09-06T07:07:24.228Z,101068.47
2018-09-06T07:09:51.956Z,101075.83
2018-09-06T07:12:18.622Z,101073.30
2018-09-06T07:14:45.324Z,101067.14
2018-09-06T07:17:12.121Z,101065.04
2018-09-06T07:19:38.994Z,101058.17
2018-09-06T07:22:05.700Z,101062.53
2018-09-06T07:24:32.345Z,101062.04
2018-09-06T07:26:59.221Z,101056.84
2018-09-06T07:29:25.869Z,101056.50
2018-09-06T07:31:52.795Z,101059.99
2018-09-06T07:34:19.449Z,101060.55
2018-09-06T07:36:46.129Z,101057.89
2018-09-06T07:39:13.021Z,101060.21
2018-09-06T07:41:39.793Z,101064.20
2018-09-06T07:44:06.615Z,101058.55
2018-09-06T07:46:33.729Z,101057.55
2018-09-06T07:49:00.389Z,101059.88
2018-09-06T07:51:27.083Z,101058.66
2018-09-06T07:53:54.610Z,101059.16
2018-09-06T07:56:21.256Z,101055.17
2018-09-06T07:58:47.912Z,101061.33
2018-09-06T08:01:15.543Z,101054.55
2018-09-06T08:03:43.044Z,101060.70
2018-09-06T08:06:10.540Z,101058.17
2018-09-06T08:08:38.134Z,101058.55
2018-09-06T08:11:05.804Z,101055.88
2018-09-06T08:13:32.477Z,101058.66
2018-09-06T08:15:59.286Z,101049.23
2018-09-06T08:18:25.924Z,101049.76
2018-09-06T08:20:52.760Z,101050.56
2018-09-06T08:23:20.267Z,101041.59
2018-09-06T08:25:46.959Z,101041.94
2018-09-06T08:28:14.418Z,101036.95
2018-09-06T08:30:41.386Z,101031.30
2018-09-06T08:33:08.031Z,101033.46
2018-09-06T08:35:36.276Z,101040.94
2018-09-06T08:38:03.208Z,101040.60
2018-09-06T08:40:30.055Z,101039.27
2018-09-06T08:42:56.717Z,101045.92
2018-09-06T08:45:23.533Z,101035.62
2018-09-06T08:47:51.191Z,101035.78
2018-09-06T08:50:18.001Z,101031.45
2018-09-06T08:52:45.697Z,101026.63
2018-09-06T08:55:15.958Z,101031.95
2018-09-06T08:57:42.981Z,101031.14
2018-09-06T09:00:09.641Z,101025.97
2018-09-06T09:02:37.246Z,101029.13
2018-09-06T09:05:03.961Z,101024.92
2018-09-06T09:07:30.669Z,101020.31
2018-09-06T09:09:57.312Z,101011.13
2018-09-06T09:12:23.951Z,101014.00
2018-09-06T09:14:51.583Z,101009.45
2018-09-06T09:17:18.277Z,101010.66
2018-09-06T09:19:45.492Z,101002.31
2018-09-06T09:22:13.432Z,101002.31
2018-09-06T09:24:40.936Z,100994.14
2018-09-06T09:27:07.576Z,100990.00
2018-09-06T09:29:35.305Z,100994.33
2018-09-06T09:32:02.009Z,100993.84
2018-09-06T09:34:29.494Z,100987.19
2018-09-06T09:36:57.137Z,100987.00
2018-09-06T09:39:24.748Z,100983.02
2018-09-06T09:41:51.389Z,100983.02
2018-09-06T09:44:18.045Z,100981.03
2018-09-06T09:49:13.700Z,100978.53
2018-09-06T09:51:41.263Z,100976.70
2018-09-06T09:54:08.816Z,100970.05
2018-09-06T09:56:35.469Z,100979.02
2018-09-06T09:59:02.185Z,100964.05
2018-09-06T10:01:34.564Z,100969.37
2018-09-06T10:04:06.808Z,100966.34
2018-09-06T10:06:40.097Z,100956.48
2018-09-06T10:09:15.587Z,100951.03
2018-09-06T10:11:43.321Z,100950.55
2018-09-06T10:14:10.796Z,100945.34
2018-09-06T10:16:37.438Z,100944.23
2018-09-06T10:19:04.084Z,100938.08
2018-09-06T10:21:30.727Z,100936.75
2018-09-06T10:23:57.377Z,100936.75
2018-09-06T10:26:24.057Z,100937.09
2018-09-06T10:28:51.845Z,100931.14
2018-09-06T10:31:18.504Z,100922.61
2018-09-06T10:33:45.889Z,100927.44
2018-09-06T10:36:12.557Z,100923.78
2018-09-06T10:38:39.199Z,100924.16
2018-09-06T10:41:06.780Z,100925.61
2018-09-06T10:43:33.433Z,100923.45
2018-09-06T10:46:00.100Z,100916.17
2018-09-06T10:48:26.749Z,100912.69
2018-09-06T10:50:53.441Z,100918.84
2018-09-06T10:53:22.037Z,100913.86
2018-09-06T10:55:50.563Z,100909.66
2018-09-06T10:58:17.432Z,100908.48
2018-09-06T11:00:44.147Z,100904.95
2018-09-06T11:03:11.644Z,100902.52
2018-09-06T11:05:38.281Z,100903.16
2018-09-06T11:08:05.920Z,100893.14
2018-09-06T11:10:32.531Z,100893.61
2018-09-06T11:12:59.992Z,100891.32
2018-09-06T11:15:26.766Z,100887.83
2018-09-06T11:17:53.407Z,100886.34
2018-09-06T11:20:20.884Z,100885.02
2018-09-06T11:22:47.608Z,100885.38
2018-09-06T11:25:14.251Z,100884.67
2018-09-06T11:27:40.969Z,100879.14
2018-09-06T11:30:07.621Z,100875.86
2018-09-06T11:32:34.267Z,100878.86
2018-09-06T11:35:00.900Z,100876.33
2018-09-06T11:37:27.617Z,100878.64
2018-09-06T11:39:54.365Z,100867.02
2018-09-06T11:42:21.876Z,100863.39
2018-09-06T11:44:48.545Z,100857.70
2018-09-06T11:47:17.740Z,100855.70
2018-09-06T11:49:44.385Z,100857.19
2018-09-06T11:52:12.088Z,100846.05
2018-09-06T11:54:38.732Z,100847.23
2018-09-06T11:57:05.407Z,100844.91
2018-09-06T11:59:32.080Z,100839.46
2018-09-06T12:01:58.784Z,100836.92
2018-09-06T12:04:25.433Z,100839.09
2018-09-06T12:06:52.078Z,100831.98
2018-09-06T12:09:20.188Z,100837.30
2018-09-06T12:11:46.861Z,100832.59
2018-09-06T12:14:13.581Z,100830.44
2018-09-06T12:16:41.316Z,100822.95
2018-09-06T12:19:07.964Z,100816.93
2018-09-06T12:21:34.633Z,100816.14
2018-09-06T12:24:01.281Z,100814.48
2018-09-06T12:26:27.950Z,100815.81
2018-09-06T12:28:54.632Z,100810.48
2018-09-06T12:31:22.141Z,100811.66
2018-09-06T12:33:48.864Z,100816.47
2018-09-06T12:36:16.624Z,100814.32
2018-09-06T12:38:43.405Z,100811.82
2018-09-06T12:41:10.133Z,100809.99
2018-09-06T12:43:37.679Z,100800.06
2018-09-06T12:46:04.315Z,100802.80
2018-09-06T12:48:31.000Z,100803.02
2018-09-06T12:50:58.522Z,100798.86
2018-09-06T12:53:26.072Z,100798.68
2018-09-06T12:55:54.338Z,100800.53
2018-09-06T12:58:21.976Z,100801.49
2018-09-06T13:00:51.982Z,100798.88
2018-09-06T13:03:18.640Z,100789.51
2018-09-06T13:05:46.031Z,100790.09
2018-09-06T13:08:13.557Z,100785.98
2018-09-06T13:10:40.224Z,100777.55
2018-09-06T13:13:07.896Z,100769.23
2018-09-06T13:15:35.552Z,100768.73
2018-09-06T13:18:03.061Z,100768.73
2018-09-06T13:20:30.645Z,100763.28
2018-09-06T13:22:58.274Z,100759.41
2018-09-06T13:25:25.925Z,100756.26
2018-09-06T13:27:52.592Z,100761.91
2018-09-06T13:30:19.265Z,100754.59
2018-09-06T13:32:47.019Z,100759.28
2018-09-06T13:35:14.632Z,100752.59
2018-09-06T13:37:42.292Z,100755.92
2018-09-06T13:40:09.829Z,100746.28
2018-09-06T13:42:37.476Z,100745.58
2018-09-06T13:45:04.136Z,100742.91
2018-09-06T13:47:31.818Z,100745.11
2018-09-06T13:49:59.405Z,100741.45
2018-09-06T13:52:27.060Z,100744.07
2018-09-06T13:54:54.737Z,100740.24
2018-09-06T13:57:22.340Z,100738.71
2018-09-06T13:59:50.505Z,100728.41
2018-09-06T14:02:17.158Z,100730.56
2018-09-06T14:04:44.693Z,100728.56
2018-09-06T14:07:12.846Z,100730.44
2018-09-06T14:09:40.383Z,100732.09
2018-09-06T14:12:07.973Z,100724.12
2018-09-06T14:14:35.448Z,100723.08
2018-09-06T14:17:02.946Z,100711.44
2018-09-06T14:19:30.532Z,100709.94
2018-09-06T14:21:58.283Z,100703.78
2018-09-06T14:24:25.792Z,100711.27
2018-09-06T14:26:53.349Z,100712.94
2018-09-06T14:29:21.885Z,100702.95
2018-09-06T14:31:50.515Z,100704.78
2018-09-06T14:34:18.229Z,100703.78
2018-09-06T14:36:47.012Z,100696.44
2018-09-06T14:39:13.729Z,100690.61
2018-09-06T14:41:41.213Z,100696.80
2018-09-06T14:44:08.762Z,100687.13
2018-09-06T14:46:36.339Z,100682.63
2018-09-06T14:49:03.922Z,100684.63
2018-09-06T14:51:31.585Z,100684.13
2018-09-06T14:53:58.269Z,100688.45
2018-09-06T14:56:25.908Z,100679.64
2018-09-06T14:58:53.500Z,100682.97
2018-09-06T15:01:22.513Z,100682.80
2018-09-06T15:03:49.169Z,100684.13
2018-09-06T15:06:16.697Z,100686.29
2018-09-06T15:08:43.520Z,100684.13
2018-09-06T15:11:10.180Z,100684.79
2018-09-06T15:13:37.758Z,100686.99
2018-09-06T15:16:05.268Z,100684.96
2018-09-06T15:18:32.795Z,100678.64
2018-09-06T15:20:59.446Z,100668.83
2018-09-06T15:23:26.149Z,100668.96
2018-09-06T15:25:53.972Z,100665.47
2018-09-06T15:28:21.556Z,100661.81
2018-09-06T15:30:48.261Z,100655.66
2018-09-06T15:33:16.582Z,100648.17
2018-09-06T15:35:44.202Z,100653.66
2018-09-06T15:38:11.740Z,100646.52
2018-09-06T15:40:39.462Z,100638.20
2018-09-06T15:43:06.254Z,100639.86
2018-09-06T15:45:32.943Z,100634.88
2018-09-06T15:47:59.621Z,100637.04
2018-09-06T15:50:26.313Z,100628.39
2018-09-06T15:52:53.992Z,100625.23
2018-09-06T15:55:21.729Z,100624.03
2018-09-06T15:57:48.429Z,100618.55
2018-09-06T16:00:16.288Z,100622.73
2018-09-06T16:02:43.152Z,100617.88
2018-09-06T16:05:09.940Z,100624.20
2018-09-06T16:07:37.557Z,100613.89
2018-09-06T16:10:04.204Z,100612.39
2018-09-06T16:12:31.784Z,100613.92
2018-09-06T16:14:59.371Z,100621.04
2018-09-06T16:17:26.148Z,100619.87
2018-09-06T16:19:52.783Z,100618.88
2018-09-06T16:22:19.429Z,100621.91
2018-09-06T16:24:46.773Z,100617.05
2018-09-06T16:27:13.429Z,100622.20
2018-09-06T16:29:40.152Z,100630.34
2018-09-06T16:32:06.805Z,100628.69
2018-09-06T16:34:33.493Z,100626.82
2018-09-06T16:37:00.368Z,100633.34
2018-09-06T16:39:27.828Z,100636.00
2018-09-06T16:41:54.477Z,100639.66
2018-09-06T16:44:23.353Z,100647.64
2018-09-06T16:46:51.167Z,100637.46
2018-09-06T16:49:17.889Z,100638.33
2018-09-06T16:51:45.840Z,100641.32
2018-09-06T16:54:12.537Z,100647.97
2018-09-06T16:56:40.043Z,100647.27
2018-09-06T16:59:06.738Z,100644.98
2018-09-06T17:01:33.409Z,100635.80
2018-09-06T17:04:00.809Z,100645.55
2018-09-06T17:06:28.473Z,100643.52
2018-09-06T17:08:55.193Z,100644.85
2018-09-06T17:11:21.853Z,100635.34
2018-09-06T17:13:48.605Z,100636.34
2018-09-06T17:16:15.364Z,100633.34
2018-09-06T17:18:42.186Z,100628.02
2018-09-06T17:21:08.896Z,100627.69
2018-09-06T17:23:35.557Z,100628.02
2018-09-06T17:26:02.306Z,100627.19
2018-09-06T17:28:29.198Z,100625.16
2018-09-06T17:30:55.949Z,100626.66
2018-09-06T17:33:22.605Z,100625.99
2018-09-06T17:35:49.284Z,100631.47
2018-09-06T17:38:16.692Z,100627.48
2018-09-06T17:40:43.726Z,100632.97
2018-09-06T17:43:10.590Z,100627.98
2018-09-06T17:45:37.342Z,100624.49
2018-09-06T17:48:04.004Z,100625.45
2018-09-06T17:50:30.741Z,100622.96
2018-09-06T17:52:57.450Z,100628.61
2018-09-06T17:55:24.237Z,100627.78
2018-09-06T17:57:51.629Z,100627.95
2018-09-06T18:00:18.281Z,100625.28
2018-09-06T18:02:45.970Z,100629.91
2018-09-06T18:05:12.609Z,100633.89
2018-09-06T18:07:39.268Z,100625.91
2018-09-06T18:10:06.037Z,100628.94
2018-09-06T18:12:32.684Z,100628.94
2018-09-06T18:14:59.568Z,100631.90
2018-09-06T18:17:26.370Z,100642.38
2018-09-06T18:19:53.090Z,100643.57
2018-09-06T18:22:20.544Z,100638.55
2018-09-06T18:24:48.130Z,100643.50
2018-09-06T18:27:14.845Z,100639.71
2018-09-06T18:29:41.505Z,100642.03
2018-09-06T18:32:08.179Z,100641.04
2018-09-06T18:34:34.877Z,100644.20
2018-09-06T18:37:01.585Z,100642.03
2018-09-06T18:39:28.269Z,100641.67
2018-09-06T18:41:54.901Z,100649.65
2018-09-06T18:44:21.585Z,100646.95
2018-09-06T18:46:49.065Z,100650.77
2018-09-06T18:49:17.605Z,100652.80
2018-09-06T18:51:44.269Z,100654.09
2018-09-06T18:54:11.054Z,100656.80
2018-09-06T18:56:37.721Z,100656.59
2018-09-06T18:59:04.357Z,100656.25
2018-09-06T19:01:31.009Z,100651.93
2018-09-06T19:03:57.839Z,100657.59
2018-09-06T19:06:24.602Z,100654.09
2018-09-06T19:08:51.820Z,100655.42
2018-09-06T19:11:20.714Z,100659.08
2018-09-06T19:13:47.525Z,100658.71
2018-09-06T19:16:14.186Z,100658.88
2018-09-06T19:18:40.874Z,100656.38
2018-09-06T19:21:08.460Z,100657.05
2018-09-06T19:23:35.112Z,100654.55
2018-09-06T19:26:01.777Z,100649.56
2018-09-06T19:28:28.617Z,100650.94
2018-09-06T19:30:55.261Z,100649.61
2018-09-06T19:33:21.945Z,100647.73
2018-09-06T19:35:48.611Z,100645.58
2018-09-06T19:38:15.849Z,100643.41
2018-09-06T19:40:42.700Z,100645.24
2018-09-06T19:43:09.469Z,100647.06
2018-09-06T19:45:37.137Z,100646.73
2018-09-06T19:48:04.753Z,100642.88
2018-09-06T19:50:31.436Z,100640.09
2018-09-06T19:52:58.110Z,100646.75
2018-09-06T19:55:24.768Z,100640.80
2018-09-06T19:57:52.312Z,100636.11
2018-09-06T20:00:21.157Z,100633.28
2018-09-06T20:02:47.860Z,100633.28
2018-09-06T20:05:14.614Z,100635.23
2018-09-06T20:07:41.325Z,100628.62
2018-09-06T20:10:07.986Z,100630.63
2018-09-06T20:12:34.873Z,100626.80
2018-09-06T20:15:01.541Z,100628.75
2018-09-06T20:17:28.536Z,100626.63
2018-09-06T20:19:56.060Z,100629.78
2018-09-06T20:22:23.608Z,100625.59
2018-09-06T20:24:51.475Z,100626.59
2018-09-06T20:27:18.147Z,100633.53
2018-09-06T20:29:44.802Z,100629.41
2018-09-06T20:32:11.452Z,100628.13
2018-09-06T20:34:38.116Z,100629.25
2018-09-06T20:37:04.906Z,100634.41
2018-09-06T20:39:31.568Z,100632.91
2018-09-06T20:41:58.259Z,100633.03
2018-09-06T20:44:24.922Z,100631.57
2018-09-06T20:46:51.580Z,100630.74
2018-09-06T20:49:18.226Z,100631.03
2018-09-06T20:51:44.882Z,100628.38
2018-09-06T20:54:11.571Z,100626.05
2018-09-06T20:56:38.306Z,100623.84
2018-09-06T20:59:04.942Z,100619.48
2018-09-06T21:01:31.691Z,100619.81
2018-09-06T21:03:59.295Z,100616.33
2018-09-06T21:06:26.036Z,100614.50
2018-09-06T21:08:52.713Z,100617.70
2018-09-06T21:11:19.354Z,100616.16
2018-09-06T21:13:46.040Z,100612.84
2018-09-06T21:16:12.855Z,100614.66
2018-09-06T21:18:39.511Z,100615.32
2018-09-06T21:21:06.175Z,100611.51
2018-09-06T21:23:37.313Z,100615.95
2018-09-06T21:26:03.984Z,100615.07
2018-09-06T21:28:30.633Z,100607.19
2018-09-06T21:30:58.218Z,100608.47
2018-09-06T21:33:24.873Z,100605.31
2018-09-06T21:35:52.733Z,100602.61
2018-09-06T21:38:21.292Z,100602.48
2018-09-06T21:40:47.940Z,100603.45
2018-09-06T21:43:14.596Z,100602.61
2018-09-06T21:45:41.237Z,100598.34
2018-09-06T21:48:07.876Z,100603.31
2018-09-06T21:50:34.537Z,100602.28
2018-09-06T21:53:02.055Z,100604.64
2018-09-06T21:55:29.626Z,100598.00
2018-09-06T21:57:57.248Z,100600.91
2018-09-06T22:00:23.898Z,100590.99
2018-09-06T22:02:57.138Z,100590.03
2018-09-06T22:05:23.798Z,100581.64
2018-09-06T22:07:52.786Z,100582.34
2018-09-06T22:10:22.295Z,100587.62
2018-09-06T22:12:49.384Z,100582.84
2018-09-06T22:15:16.081Z,100581.64
2018-09-06T22:17:43.717Z,100582.51
2018-09-06T22:20:10.356Z,100576.33
2018-09-06T22:22:37.841Z,100570.55
2018-09-06T22:25:05.396Z,100574.91
2018-09-06T22:27:32.932Z,100577.86
2018-09-06T22:29:59.598Z,100571.17
2018-09-06T22:32:26.308Z,100565.36
2018-09-06T22:34:52.960Z,100572.51
2018-09-06T22:37:20.809Z,100565.07
2018-09-06T22:39:47.496Z,100564.03
2018-09-06T22:42:16.095Z,100567.52
2018-09-06T22:44:42.783Z,100564.58
2018-09-06T22:47:10.253Z,100561.71
2018-09-06T22:49:36.902Z,100563.04
2018-09-06T22:52:03.880Z,100561.00
2018-09-06T22:54:30.540Z,100550.25
2018-09-06T22:56:58.195Z,100551.74
2018-09-06T22:59:24.872Z,100545.63
2018-09-06T23:01:52.569Z,100545.77
2018-09-06T23:04:21.281Z,100541.61
2018-09-06T23:06:47.934Z,100541.15
2018-09-06T23:09:15.693Z,100537.45
2018-09-06T23:11:43.155Z,100529.69
2018-09-06T23:14:09.789Z,100533.47
2018-09-06T23:16:36.425Z,100540.45
2018-09-06T23:19:03.069Z,100530.86
2018-09-06T23:21:29.710Z,100534.80
2018-09-06T23:23:56.396Z,100534.30
2018-09-06T23:26:23.049Z,100528.89
2018-09-06T23:28:50.393Z,100524.70
2018-09-06T23:31:17.058Z,100522.22
2018-09-06T23:33:43.719Z,100527.56
2018-09-06T23:36:11.317Z,100519.39
2018-09-06T23:38:38.930Z,100521.64
2018-09-06T23:41:06.078Z,100518.23
2018-09-06T23:43:33.522Z,100524.00
2018-09-06T23:46:00.177Z,100518.03
2018-09-06T23:48:28.067Z,100523.17
2018-09-06T23:50:55.585Z,100514.53
2018-09-06T23:53:22.499Z,100517.53
2018-09-06T23:55:49.132Z,100514.70
2018-09-06T23:58:17.420Z,100515.03
